createdAt,value
2018-04-18T00:01:25.450Z,9.80
2018-04-18T00:03:51.646Z,9.80
2018-04-18T00:06:17.886Z,9.80
2018-04-18T00:08:44.147Z,9.80
2018-04-18T00:11:10.345Z,9.80
2018-04-18T00:13:37.407Z,9.80
2018-04-18T00:16:04.381Z,9.70
2018-04-18T00:18:31.351Z,9.70
2018-04-18T00:20:57.596Z,9.70
2018-04-18T00:23:24.599Z,9.50
2018-04-18T00:25:50.805Z,9.60
2018-04-18T00:28:17.009Z,9.50
2018-04-18T00:30:44.017Z,9.40
2018-04-18T00:33:10.981Z,9.40
2018-04-18T00:35:37.190Z,9.30
2018-04-18T00:38:03.467Z,9.40
2018-04-18T00:40:29.701Z,9.30
2018-04-18T00:42:55.907Z,9.30
2018-04-18T00:45:22.171Z,9.30
2018-04-18T00:47:48.515Z,9.30
2018-04-18T00:50:14.709Z,9.30
2018-04-18T00:52:41.675Z,9.20
2018-04-18T00:55:08.635Z,9.20
2018-04-18T00:57:35.583Z,9.20
2018-04-18T01:00:02.601Z,9.20
2018-04-18T01:02:28.801Z,9.20
2018-04-18T01:04:55.024Z,9.20
2018-04-18T01:07:22.253Z,9.10
2018-04-18T01:09:48.469Z,9.10
2018-04-18T01:12:14.703Z,9.00
2018-04-18T01:14:40.945Z,9.00
2018-04-18T01:17:07.141Z,9.00
2018-04-18T01:19:34.090Z,9.00
2018-04-18T01:22:00.299Z,8.90
2018-04-18T01:24:26.531Z,8.90
2018-04-18T01:26:52.745Z,8.90
2018-04-18T01:29:18.948Z,8.90
2018-04-18T01:31:45.927Z,8.90
2018-04-18T01:34:12.879Z,8.90
2018-04-18T01:36:39.877Z,8.80
2018-04-18T01:39:06.087Z,8.80
2018-04-18T01:41:33.059Z,8.80
2018-04-18T01:43:59.273Z,8.70
2018-04-18T01:46:26.238Z,8.60
2018-04-18T01:49:05.547Z,8.60
2018-04-18T01:51:31.784Z,8.60
2018-04-18T01:53:57.997Z,8.50
2018-04-18T01:56:24.225Z,8.50
2018-04-18T01:58:50.433Z,8.50
2018-04-18T02:01:17.414Z,8.40
2018-04-18T02:03:43.622Z,8.30
2018-04-18T02:06:09.848Z,8.30
2018-04-18T02:08:36.069Z,8.30
2018-04-18T02:11:02.308Z,8.30
2018-04-18T02:13:28.513Z,8.30
2018-04-18T02:15:54.774Z,8.30
2018-04-18T02:18:20.969Z,8.20
2018-04-18T02:20:47.203Z,8.20
2018-04-18T02:23:13.975Z,8.20
2018-04-18T02:25:40.967Z,8.20
2018-04-18T02:28:07.171Z,8.20
2018-04-18T02:30:34.153Z,8.10
2018-04-18T02:33:00.368Z,8.10
2018-04-18T02:35:27.357Z,8.10
2018-04-18T02:37:53.559Z,8.10
2018-04-18T02:40:20.718Z,8.10
2018-04-18T02:42:47.662Z,8.10
2018-04-18T02:45:13.877Z,8.10
2018-04-18T02:47:40.097Z,8.00
2018-04-18T02:50:06.345Z,8.00
2018-04-18T02:52:32.597Z,8.00
2018-04-18T02:54:58.807Z,8.20
2018-04-18T02:57:25.035Z,8.50
2018-04-18T02:59:51.276Z,8.90
2018-04-18T03:02:18.287Z,9.40
2018-04-18T03:04:44.470Z,9.40
2018-04-18T03:07:11.464Z,10.10
2018-04-18T03:09:37.666Z,10.10
2018-04-18T03:12:04.654Z,10.50
2018-04-18T03:14:30.882Z,10.40
2018-04-18T03:16:57.925Z,10.20
2018-04-18T03:19:24.140Z,9.80
2018-04-18T03:21:51.104Z,9.20
2018-04-18T03:24:18.054Z,9.00
2018-04-18T03:26:44.276Z,8.90
2018-04-18T03:29:10.482Z,8.70
2018-04-18T03:31:36.705Z,8.60
2018-04-18T03:34:02.944Z,8.40
2018-04-18T03:36:29.182Z,8.30
2018-04-18T03:38:55.393Z,8.20
2018-04-18T03:41:21.666Z,8.10
2018-04-18T03:43:47.857Z,7.90
2018-04-18T03:46:14.109Z,7.90
2018-04-18T03:48:40.317Z,7.80
2018-04-18T03:51:06.540Z,7.80
2018-04-18T03:53:32.755Z,7.70
2018-04-18T03:55:59.998Z,7.60
2018-04-18T03:58:26.209Z,7.60
2018-04-18T04:00:52.428Z,7.50
2018-04-18T04:03:18.654Z,7.50
2018-04-18T04:05:44.862Z,7.50
2018-04-18T04:08:11.086Z,7.50
2018-04-18T04:10:37.330Z,7.50
2018-04-18T04:13:03.724Z,7.40
2018-04-18T04:15:29.945Z,7.40
2018-04-18T04:18:09.179Z,7.40
2018-04-18T04:20:48.517Z,7.30
2018-04-18T04:23:26.956Z,7.20
2018-04-18T04:25:53.907Z,7.10
2018-04-18T04:28:20.893Z,7.10
2018-04-18T04:30:47.137Z,7.10
2018-04-18T04:33:13.357Z,7.10
2018-04-18T04:35:40.303Z,7.10
2018-04-18T04:38:07.277Z,7.10
2018-04-18T04:40:34.226Z,7.10
2018-04-18T04:43:01.769Z,7.10
2018-04-18T04:45:27.997Z,7.10
2018-04-18T04:47:54.247Z,7.10
2018-04-18T04:50:20.454Z,7.30
2018-04-18T04:52:46.700Z,7.80
2018-04-18T04:55:12.891Z,8.60
2018-04-18T04:57:39.880Z,9.90
2018-04-18T05:00:06.130Z,9.90
2018-04-18T05:02:32.497Z,10.30
2018-04-18T05:04:58.607Z,10.70
2018-04-18T05:07:24.880Z,10.90
2018-04-18T05:09:51.117Z,11.20
2018-04-18T05:12:17.385Z,11.40
2018-04-18T05:14:43.610Z,11.50
2018-04-18T05:17:09.823Z,11.60
2018-04-18T05:19:36.072Z,11.80
2018-04-18T05:22:02.303Z,11.90
2018-04-18T05:24:28.570Z,12.10
2018-04-18T05:26:54.771Z,12.10
2018-04-18T05:29:21.003Z,12.20
2018-04-18T05:31:47.198Z,12.30
2018-04-18T05:34:13.418Z,12.40
2018-04-18T05:36:39.632Z,12.50
2018-04-18T05:39:05.871Z,12.40
2018-04-18T05:41:32.099Z,12.00
2018-04-18T05:43:58.378Z,11.40
2018-04-18T05:46:24.611Z,11.00
2018-04-18T05:48:50.859Z,10.90
2018-04-18T05:51:17.826Z,11.00
2018-04-18T05:53:44.072Z,11.00
2018-04-18T05:56:10.305Z,11.10
2018-04-18T05:58:36.569Z,11.10
2018-04-18T06:01:02.807Z,11.10
2018-04-18T06:03:29.038Z,11.00
2018-04-18T06:05:55.269Z,10.90
2018-04-18T06:08:21.529Z,10.90
2018-04-18T06:10:47.763Z,10.90
2018-04-18T06:13:14.047Z,11.00
2018-04-18T06:15:40.291Z,11.20
2018-04-18T06:18:06.517Z,11.40
2018-04-18T06:20:34.137Z,11.90
2018-04-18T06:23:00.386Z,11.80
2018-04-18T06:25:26.602Z,12.00
2018-04-18T06:27:52.813Z,12.10
2018-04-18T06:30:19.062Z,12.20
2018-04-18T06:32:45.278Z,12.40
2018-04-18T06:35:12.256Z,12.40
2018-04-18T06:37:39.203Z,12.40
2018-04-18T06:40:06.232Z,12.50
2018-04-18T06:42:32.402Z,12.40
2018-04-18T06:44:59.387Z,12.50
2018-04-18T06:47:25.604Z,12.50
2018-04-18T06:49:52.593Z,12.40
2018-04-18T06:52:18.852Z,12.40
2018-04-18T06:54:45.065Z,12.40
2018-04-18T06:57:11.298Z,12.30
2018-04-18T06:59:37.534Z,12.30
2018-04-18T07:02:03.787Z,12.30
2018-04-18T07:04:30.027Z,12.30
2018-04-18T07:06:56.293Z,12.30
2018-04-18T07:09:23.269Z,12.40
2018-04-18T07:11:49.504Z,12.40
2018-04-18T07:14:15.740Z,12.40
2018-04-18T07:16:41.947Z,12.40
2018-04-18T07:19:08.193Z,12.50
2018-04-18T07:21:34.399Z,12.60
2018-04-18T07:24:01.385Z,12.70
2018-04-18T07:26:27.617Z,12.70
2018-04-18T07:28:53.891Z,12.80
2018-04-18T07:31:20.096Z,12.90
2018-04-18T07:33:46.346Z,13.00
2018-04-18T07:36:12.564Z,13.20
2018-04-18T07:38:39.913Z,13.40
2018-04-18T07:41:06.255Z,13.40
2018-04-18T07:43:32.481Z,13.50
2018-04-18T07:45:59.333Z,13.60
2018-04-18T07:48:25.612Z,13.70
2018-04-18T07:50:51.839Z,13.80
2018-04-18T07:53:18.780Z,14.00
2018-04-18T07:55:45.019Z,14.00
2018-04-18T07:58:11.269Z,14.10
2018-04-18T08:00:37.496Z,14.20
2018-04-18T08:03:03.769Z,14.30
2018-04-18T08:05:30.710Z,14.50
2018-04-18T08:07:56.924Z,14.50
2018-04-18T08:10:23.198Z,14.60
2018-04-18T08:12:50.251Z,14.90
2018-04-18T08:15:16.501Z,14.90
2018-04-18T08:17:42.718Z,15.00
2018-04-18T08:20:08.956Z,15.10
2018-04-18T08:22:35.209Z,15.20
2018-04-18T08:25:01.472Z,15.40
2018-04-18T08:27:27.712Z,15.50
2018-04-18T08:29:54.689Z,15.70
2018-04-18T08:32:20.928Z,15.60
2018-04-18T08:34:47.154Z,15.80
2018-04-18T08:37:14.127Z,16.10
2018-04-18T08:39:41.091Z,16.30
2018-04-18T08:42:07.321Z,16.20
2018-04-18T08:44:33.530Z,16.40
2018-04-18T08:47:00.033Z,16.50
2018-04-18T08:49:26.281Z,16.60
2018-04-18T08:51:52.490Z,16.70
2018-04-18T08:54:18.715Z,16.80
2018-04-18T08:56:45.714Z,17.00
2018-04-18T08:59:11.909Z,17.00
2018-04-18T09:01:38.896Z,17.20
2018-04-18T09:04:05.098Z,17.20
2018-04-18T09:06:32.106Z,17.40
2018-04-18T09:08:58.321Z,17.30
2018-04-18T09:11:24.527Z,17.50
2018-04-18T09:13:50.761Z,17.60
2018-04-18T09:16:16.997Z,17.80
2018-04-18T09:18:43.213Z,17.90
2018-04-18T09:21:09.434Z,18.00
2018-04-18T09:23:35.665Z,18.10
2018-04-18T09:26:01.907Z,18.20
2018-04-18T09:28:28.134Z,18.30
2018-04-18T09:30:54.380Z,18.40
2018-04-18T09:33:21.330Z,18.70
2018-04-18T09:35:48.260Z,18.80
2018-04-18T09:38:14.543Z,18.80
2018-04-18T09:40:40.771Z,19.00
2018-04-18T09:43:07.000Z,19.10
2018-04-18T09:45:33.970Z,19.40
2018-04-18T09:48:00.703Z,19.30
2018-04-18T09:50:27.661Z,19.50
2018-04-18T09:52:54.739Z,19.60
2018-04-18T09:55:21.700Z,19.60
2018-04-18T09:57:47.913Z,19.60
2018-04-18T10:00:14.159Z,19.70
2018-04-18T10:02:41.137Z,19.90
2018-04-18T10:05:07.350Z,19.90
2018-04-18T10:07:33.642Z,20.00
2018-04-18T10:09:59.852Z,20.10
2018-04-18T10:12:26.819Z,20.50
2018-04-18T10:14:53.076Z,20.50
2018-04-18T10:17:19.275Z,20.80
2018-04-18T10:19:46.239Z,21.20
2018-04-18T10:22:13.202Z,21.50
2018-04-18T10:24:40.171Z,21.70
2018-04-18T10:27:06.383Z,21.70
2018-04-18T10:29:32.623Z,21.90
2018-04-18T10:31:58.825Z,22.20
2018-04-18T10:34:25.022Z,22.40
2018-04-18T10:36:51.290Z,22.60
2018-04-18T10:39:17.534Z,22.80
2018-04-18T10:41:43.776Z,23.00
2018-04-18T10:44:09.998Z,23.20
2018-04-18T10:46:36.216Z,23.40
2018-04-18T10:49:03.295Z,23.80
2018-04-18T10:51:29.522Z,23.70
2018-04-18T10:53:56.509Z,24.30
2018-04-18T10:56:22.725Z,24.20
2018-04-18T10:58:49.895Z,24.50
2018-04-18T11:01:16.090Z,24.50
2018-04-18T11:03:42.309Z,24.70
2018-04-18T11:06:08.553Z,24.80
2018-04-18T11:08:35.519Z,25.40
2018-04-18T11:11:01.727Z,25.40
2018-04-18T11:13:27.969Z,25.60
2018-04-18T11:15:54.169Z,25.80
2018-04-18T11:18:20.397Z,25.90
2018-04-18T11:20:46.613Z,26.00
2018-04-18T11:23:12.849Z,26.00
2018-04-18T11:25:39.118Z,26.20
2018-04-18T11:28:05.339Z,26.30
2018-04-18T11:30:31.565Z,26.40
2018-04-18T11:32:57.799Z,26.50
2018-04-18T11:35:24.041Z,26.70
2018-04-18T11:37:50.250Z,26.70
2018-04-18T11:40:17.209Z,26.90
2018-04-18T11:42:44.189Z,27.00
2018-04-18T11:45:10.402Z,27.00
2018-04-18T11:47:37.360Z,27.10
2018-04-18T11:50:04.720Z,27.00
2018-04-18T11:52:31.694Z,26.90
2018-04-18T11:54:57.923Z,26.90
2018-04-18T11:57:24.898Z,27.20
2018-04-18T11:59:51.268Z,27.20
2018-04-18T12:02:18.312Z,27.10
2018-04-18T12:04:45.752Z,27.20
2018-04-18T12:07:13.717Z,27.20
2018-04-18T12:09:40.688Z,27.30
2018-04-18T12:12:07.670Z,27.50
2018-04-18T12:14:33.885Z,27.50
2018-04-18T12:17:00.873Z,27.60
2018-04-18T12:19:27.117Z,27.60
2018-04-18T12:21:53.327Z,27.70
2018-04-18T12:24:20.267Z,27.80
2018-04-18T12:26:46.526Z,27.70
2018-04-18T12:29:13.475Z,27.90
2018-04-18T12:31:40.427Z,27.90
2018-04-18T12:34:06.689Z,27.90
2018-04-18T12:36:32.904Z,28.10
2018-04-18T12:38:59.873Z,28.50
2018-04-18T12:41:26.864Z,28.70
2018-04-18T12:43:53.081Z,28.60
2018-04-18T12:46:19.299Z,28.70
2018-04-18T12:48:45.544Z,28.60
2018-04-18T12:51:12.046Z,28.60
2018-04-18T12:53:38.272Z,28.70
2018-04-18T12:56:04.530Z,28.80
2018-04-18T12:58:30.769Z,28.90
2018-04-18T13:00:56.972Z,29.00
2018-04-18T13:03:23.202Z,29.00
2018-04-18T13:05:50.142Z,29.00
2018-04-18T13:08:17.116Z,28.80
2018-04-18T13:10:44.209Z,28.80
2018-04-18T13:13:10.449Z,28.80
2018-04-18T13:15:36.695Z,28.80
2018-04-18T13:18:02.961Z,28.70
2018-04-18T13:20:29.193Z,28.70
2018-04-18T13:22:55.456Z,28.60
2018-04-18T13:25:21.726Z,28.70
2018-04-18T13:27:47.956Z,28.90
2018-04-18T13:30:14.919Z,29.30
2018-04-18T13:32:41.902Z,29.20
2018-04-18T13:35:08.140Z,29.20
2018-04-18T13:37:34.386Z,29.20
2018-04-18T13:40:00.688Z,29.20
2018-04-18T13:42:27.703Z,29.50
2018-04-18T13:44:53.936Z,29.40
2018-04-18T13:47:20.201Z,29.50
2018-04-18T13:49:47.150Z,29.40
2018-04-18T13:52:13.511Z,29.40
2018-04-18T13:54:39.803Z,29.30
2018-04-18T13:57:06.067Z,29.30
2018-04-18T13:59:32.337Z,29.30
2018-04-18T14:01:58.574Z,29.40
2018-04-18T14:04:24.800Z,29.70
2018-04-18T14:06:51.034Z,29.90
2018-04-18T14:09:17.271Z,30.00
2018-04-18T14:11:43.494Z,30.00
2018-04-18T14:14:09.713Z,29.90
2018-04-18T14:16:36.869Z,29.70
2018-04-18T14:19:03.846Z,29.80
2018-04-18T14:21:30.050Z,29.80
2018-04-18T14:23:56.297Z,29.80
2018-04-18T14:26:23.251Z,29.60
2018-04-18T14:28:50.226Z,29.70
2018-04-18T14:31:17.192Z,29.80
2018-04-18T14:33:44.145Z,29.80
2018-04-18T14:36:11.110Z,29.70
2018-04-18T14:38:38.088Z,29.50
2018-04-18T14:41:04.326Z,29.40
2018-04-18T14:43:30.541Z,29.20
2018-04-18T14:45:57.503Z,29.00
2018-04-18T14:48:24.486Z,29.00
2018-04-18T14:50:50.730Z,28.90
2018-04-18T14:53:17.234Z,29.00
2018-04-18T14:55:44.207Z,29.30
2018-04-18T14:58:10.397Z,29.30
2018-04-18T15:00:36.627Z,29.30
2018-04-18T15:03:02.879Z,29.30
2018-04-18T15:05:29.110Z,29.30
2018-04-18T15:07:55.352Z,29.40
2018-04-18T15:10:21.615Z,29.40
2018-04-18T15:12:47.838Z,29.40
2018-04-18T15:15:14.068Z,29.30
2018-04-18T15:17:40.286Z,29.20
2018-04-18T15:20:06.514Z,29.20
2018-04-18T15:22:32.874Z,29.10
2018-04-18T15:24:59.105Z,29.10
2018-04-18T15:27:25.346Z,29.10
2018-04-18T15:29:51.634Z,29.00
2018-04-18T15:32:17.859Z,28.90
2018-04-18T15:34:44.067Z,28.90
2018-04-18T15:37:10.283Z,28.90
2018-04-18T15:39:37.249Z,28.80
2018-04-18T15:42:04.226Z,28.70
2018-04-18T15:44:30.427Z,28.70
2018-04-18T15:46:57.386Z,28.40
2018-04-18T15:49:24.359Z,28.50
2018-04-18T15:51:51.326Z,28.60
2018-04-18T15:54:17.972Z,28.50
2018-04-18T15:56:45.007Z,28.80
2018-04-18T15:59:11.233Z,28.70
2018-04-18T16:01:37.468Z,28.70
2018-04-18T16:04:03.711Z,28.60
2018-04-18T16:06:29.956Z,28.70
2018-04-18T16:08:56.193Z,28.70
2018-04-18T16:11:22.447Z,28.70
2018-04-18T16:13:48.675Z,28.70
2018-04-18T16:16:14.891Z,28.60
2018-04-18T16:18:41.107Z,28.50
2018-04-18T16:21:07.370Z,28.50
2018-04-18T16:23:33.665Z,28.40
2018-04-18T16:25:59.941Z,28.50
2018-04-18T16:28:26.291Z,28.70
2018-04-18T16:30:52.522Z,28.70
2018-04-18T16:33:18.772Z,28.80
2018-04-18T16:35:45.020Z,28.80
2018-04-18T16:38:11.218Z,28.60
2018-04-18T16:40:38.170Z,28.50
2018-04-18T16:43:04.441Z,28.40
2018-04-18T16:45:30.693Z,28.20
2018-04-18T16:47:56.928Z,28.00
2018-04-18T16:50:23.180Z,27.90
2018-04-18T16:52:49.466Z,27.80
2018-04-18T16:55:16.729Z,27.40
2018-04-18T16:57:42.987Z,27.40
2018-04-18T17:00:10.009Z,27.00
2018-04-18T17:02:36.236Z,27.00
2018-04-18T17:05:02.545Z,26.90
2018-04-18T17:07:28.795Z,26.70
2018-04-18T17:09:55.040Z,26.50
2018-04-18T17:12:21.300Z,26.20
2018-04-18T17:14:47.564Z,26.10
2018-04-18T17:17:13.852Z,25.80
2018-04-18T17:19:40.827Z,25.10
2018-04-18T17:22:07.116Z,25.10
2018-04-18T17:24:33.361Z,24.70
2018-04-18T17:27:00.350Z,23.90
2018-04-18T17:29:26.600Z,23.90
2018-04-18T17:31:52.852Z,23.60
2018-04-18T17:34:19.254Z,23.30
2018-04-18T17:36:46.240Z,22.60
2018-04-18T17:39:12.476Z,22.60
2018-04-18T17:41:38.741Z,22.30
2018-04-18T17:44:05.038Z,22.10
2018-04-18T17:46:32.029Z,21.60
2018-04-18T17:48:58.315Z,21.60
2018-04-18T17:51:24.548Z,21.40
2018-04-18T17:53:50.766Z,21.20
2018-04-18T17:56:17.258Z,21.00
2018-04-18T17:58:44.227Z,20.70
2018-04-18T18:01:10.490Z,20.60
2018-04-18T18:03:36.713Z,20.50
2018-04-18T18:06:03.717Z,20.10
2018-04-18T18:08:29.967Z,20.10
2018-04-18T18:10:56.209Z,19.90
2018-04-18T18:13:22.454Z,19.70
2018-04-18T18:15:48.684Z,19.40
2018-04-18T18:18:14.932Z,19.20
2018-04-18T18:20:41.187Z,19.00
2018-04-18T18:23:07.436Z,18.80
2018-04-18T18:25:34.460Z,18.40
2018-04-18T18:28:00.690Z,18.30
2018-04-18T18:30:26.966Z,18.20
2018-04-18T18:32:53.226Z,18.00
2018-04-18T18:35:20.240Z,17.70
2018-04-18T18:37:46.495Z,17.70
2018-04-18T18:40:12.872Z,17.60
2018-04-18T18:42:39.830Z,17.40
2018-04-18T18:45:06.082Z,17.40
2018-04-18T18:47:32.390Z,17.20
2018-04-18T18:49:58.630Z,17.00
2018-04-18T18:52:24.903Z,16.90
2018-04-18T18:54:51.153Z,16.80
2018-04-18T18:57:17.738Z,16.60
2018-04-18T18:59:44.738Z,16.40
2018-04-18T19:02:11.751Z,16.30
2018-04-18T19:04:38.031Z,16.30
2018-04-18T19:07:05.062Z,16.10
2018-04-18T19:09:31.356Z,16.10
2018-04-18T19:11:57.613Z,16.00
2018-04-18T19:14:23.903Z,15.90
2018-04-18T19:16:50.235Z,15.80
2018-04-18T19:19:16.532Z,15.70
2018-04-18T19:21:42.810Z,15.60
2018-04-18T19:24:09.107Z,15.50
2018-04-18T19:26:35.391Z,15.40
2018-04-18T19:29:01.675Z,15.30
2018-04-18T19:31:27.970Z,15.20
2018-04-18T19:33:54.248Z,15.10
2018-04-18T19:36:21.310Z,14.90
2018-04-18T19:38:48.394Z,14.90
2018-04-18T19:41:14.670Z,14.90
2018-04-18T19:43:40.927Z,14.80
2018-04-18T19:46:07.327Z,14.70
2018-04-18T19:48:33.601Z,14.60
2018-04-18T19:50:59.910Z,14.60
2018-04-18T19:53:26.203Z,14.50
2018-04-18T19:55:52.523Z,14.40
2018-04-18T19:58:19.242Z,14.30
2018-04-18T20:00:46.314Z,14.20
2018-04-18T20:03:12.589Z,14.20
2018-04-18T20:05:40.394Z,14.00
2018-04-18T20:08:07.408Z,13.90
2018-04-18T20:10:33.669Z,13.90
2018-04-18T20:12:59.953Z,13.90
2018-04-18T20:15:26.214Z,13.80
2018-04-18T20:17:52.481Z,13.80
2018-04-18T20:20:18.751Z,13.70
2018-04-18T20:22:45.025Z,13.70
2018-04-18T20:25:11.251Z,13.60
2018-04-18T20:27:38.211Z,13.40
2018-04-18T20:30:05.222Z,13.40
2018-04-18T20:32:31.453Z,13.30
2018-04-18T20:34:58.489Z,13.30
2018-04-18T20:37:24.725Z,13.30
2018-04-18T20:39:50.951Z,13.20
2018-04-18T20:42:17.171Z,13.20
2018-04-18T20:44:43.404Z,13.20
2018-04-18T20:47:09.636Z,13.10
2018-04-18T20:49:35.875Z,13.10
2018-04-18T20:52:02.233Z,13.10
2018-04-18T20:54:29.256Z,13.00
2018-04-18T20:56:55.453Z,13.00
2018-04-18T20:59:22.567Z,12.90
2018-04-18T21:01:48.786Z,12.90
2018-04-18T21:04:15.004Z,12.80
2018-04-18T21:06:41.256Z,12.80
2018-04-18T21:09:07.483Z,12.70
2018-04-18T21:11:33.691Z,12.70
2018-04-18T21:14:00.701Z,12.50
2018-04-18T21:16:26.923Z,12.50
2018-04-18T21:18:53.142Z,12.40
2018-04-18T21:21:20.122Z,12.40
2018-04-18T21:23:46.344Z,12.40
2018-04-18T21:26:13.303Z,12.30
2018-04-18T21:28:39.546Z,12.30
2018-04-18T21:31:05.778Z,12.30
2018-04-18T21:33:32.745Z,12.30
2018-04-18T21:35:59.016Z,12.20
2018-04-18T21:38:25.240Z,12.20
2018-04-18T21:40:51.466Z,12.20
2018-04-18T21:43:17.706Z,12.10
2018-04-18T21:45:43.952Z,12.10
2018-04-18T21:48:10.207Z,12.00
2018-04-18T21:50:36.453Z,11.90
2018-04-18T21:53:02.681Z,11.80
2018-04-18T21:55:28.897Z,11.80
2018-04-18T21:57:56.010Z,11.80
2018-04-18T22:00:22.361Z,11.80
2018-04-18T22:02:48.559Z,11.80
2018-04-18T22:05:14.777Z,11.80
2018-04-18T22:07:41.775Z,11.70
2018-04-18T22:10:08.046Z,11.60
2018-04-18T22:12:34.412Z,11.60
2018-04-18T22:15:01.364Z,11.50
2018-04-18T22:17:28.331Z,11.40
2018-04-18T22:19:55.320Z,11.40
2018-04-18T22:22:21.551Z,11.40
2018-04-18T22:24:47.783Z,11.30
2018-04-18T22:27:14.029Z,11.30
2018-04-18T22:29:40.266Z,11.20
2018-04-18T22:32:06.507Z,11.20
2018-04-18T22:34:32.759Z,11.20
2018-04-18T22:36:59.015Z,11.10
2018-04-18T22:39:25.236Z,11.00
2018-04-18T22:41:51.489Z,11.00
2018-04-18T22:44:17.711Z,10.90
2018-04-18T22:46:43.926Z,10.90
2018-04-18T22:49:10.908Z,10.80
2018-04-18T22:51:37.123Z,10.80
2018-04-18T22:54:04.099Z,10.70
2018-04-18T22:56:30.349Z,10.70
2018-04-18T22:58:56.556Z,10.70
2018-04-18T23:01:22.905Z,10.70
2018-04-18T23:03:49.173Z,10.60
2018-04-18T23:06:15.404Z,10.60
2018-04-18T23:08:41.631Z,10.50
2018-04-18T23:11:07.856Z,10.50
2018-04-18T23:13:34.197Z,10.40
2018-04-18T23:16:00.421Z,10.40
2018-04-18T23:18:26.658Z,10.30
2018-04-18T23:20:52.855Z,10.30
2018-04-18T23:23:19.103Z,10.20
2018-04-18T23:25:45.349Z,10.20
2018-04-18T23:28:11.569Z,10.20
2018-04-18T23:30:38.523Z,10.20
2018-04-18T23:33:05.514Z,10.20
2018-04-18T23:35:31.762Z,10.20
2018-04-18T23:37:57.974Z,10.20
2018-04-18T23:40:24.206Z,10.20
2018-04-18T23:42:51.155Z,10.10
2018-04-18T23:45:18.151Z,10.00
2018-04-18T23:47:44.381Z,10.00
2018-04-18T23:50:10.640Z,10.00
2018-04-18T23:52:36.872Z,10.00
2018-04-18T23:55:03.887Z,9.90
2018-04-18T23:57:30.828Z,9.90
2018-04-18T23:59:57.030Z,9.80
